sensor_id;sensor_type;location;lat;lon;timestamp;P1;durP1;ratioP1;P2;durP2;ratioP2
20653;SDS011;21083;50.898;4.902;2023-08-01T00:01:29;4.32;;;1.00;;
20653;SDS011;21083;50.898;4.902;2023-08-01T00:03:56;4.90;;;1.20;;
20653;SDS011;21083;50.898;4.902;2023-08-01T00:06:23;3.65;;;1.02;;
20653;SDS011;21083;50.898;4.902;2023-08-01T00:08:50;3.55;;;1.08;;
20653;SDS011;21083;50.898;4.902;2023-08-01T00:11:19;4.40;;;1.13;;
20653;SDS011;21083;50.898;4.902;2023-08-01T00:13:46;2.58;;;0.90;;
20653;SDS011;21083;50.898;4.902;2023-08-01T00:16:13;2.22;;;0.73;;
20653;SDS011;21083;50.898;4.902;2023-08-01T00:18:40;2.42;;;1.05;;
20653;SDS011;21083;50.898;4.902;2023-08-01T00:21:06;5.28;;;1.05;;
20653;SDS011;21083;50.898;4.902;2023-08-01T00:23:35;2.25;;;1.05;;
20653;SDS011;21083;50.898;4.902;2023-08-01T00:26:03;5.20;;;1.15;;
20653;SDS011;21083;50.898;4.902;2023-08-01T00:28:31;4.38;;;1.48;;
20653;SDS011;21083;50.898;4.902;2023-08-01T00:31:02;5.95;;;1.30;;
20653;SDS011;21083;50.898;4.902;2023-08-01T00:33:30;3.50;;;1.33;;
20653;SDS011;21083;50.898;4.902;2023-08-01T00:35:57;4.05;;;1.17;;
20653;SDS011;21083;50.898;4.902;2023-08-01T00:38:24;8.35;;;1.67;;
20653;SDS011;21083;50.898;4.902;2023-08-01T00:40:51;3.97;;;1.10;;
20653;SDS011;21083;50.898;4.902;2023-08-01T00:43:18;5.25;;;1.10;;
20653;SDS011;21083;50.898;4.902;2023-08-01T00:45:46;4.90;;;1.30;;
20653;SDS011;21083;50.898;4.902;2023-08-01T00:48:13;5.00;;;1.58;;
20653;SDS011;21083;50.898;4.902;2023-08-01T00:50:40;4.43;;;1.10;;
20653;SDS011;21083;50.898;4.902;2023-08-01T00:53:07;6.45;;;1.63;;
20653;SDS011;21083;50.898;4.902;2023-08-01T00:55:34;6.22;;;1.60;;
20653;SDS011;21083;50.898;4.902;2023-08-01T00:58:02;7.05;;;2.08;;
20653;SDS011;21083;50.898;4.902;2023-08-01T01:00:29;5.90;;;1.88;;
20653;SDS011;21083;50.898;4.902;2023-08-01T01:02:59;7.20;;;2.30;;
20653;SDS011;21083;50.898;4.902;2023-08-01T01:05:26;11.23;;;2.35;;
20653;SDS011;21083;50.898;4.902;2023-08-01T01:07:57;5.72;;;2.03;;
20653;SDS011;21083;50.898;4.902;2023-08-01T01:10:25;7.18;;;1.90;;
20653;SDS011;21083;50.898;4.902;2023-08-01T01:12:52;6.05;;;1.88;;
20653;SDS011;21083;50.898;4.902;2023-08-01T01:15:20;9.10;;;2.25;;
20653;SDS011;21083;50.898;4.902;2023-08-01T01:17:47;5.68;;;2.13;;
20653;SDS011;21083;50.898;4.902;2023-08-01T01:22:51;6.13;;;2.33;;
20653;SDS011;21083;50.898;4.902;2023-08-01T01:25:20;8.10;;;2.38;;
20653;SDS011;21083;50.898;4.902;2023-08-01T01:27:49;9.75;;;2.10;;
20653;SDS011;21083;50.898;4.902;2023-08-01T01:30:18;6.95;;;1.90;;
20653;SDS011;21083;50.898;4.902;2023-08-01T01:32:46;4.60;;;2.35;;
20653;SDS011;21083;50.898;4.902;2023-08-01T01:35:14;10.32;;;3.22;;
20653;SDS011;21083;50.898;4.902;2023-08-01T01:37:41;7.32;;;2.50;;
20653;SDS011;21083;50.898;4.902;2023-08-01T01:40:10;9.30;;;2.53;;
20653;SDS011;21083;50.898;4.902;2023-08-01T01:42:37;8.88;;;2.58;;
20653;SDS011;21083;50.898;4.902;2023-08-01T01:45:04;8.20;;;2.70;;
20653;SDS011;21083;50.898;4.902;2023-08-01T01:47:32;8.93;;;2.83;;
20653;SDS011;21083;50.898;4.902;2023-08-01T01:49:59;7.75;;;2.53;;
20653;SDS011;21083;50.898;4.902;2023-08-01T01:52:26;8.75;;;2.80;;
20653;SDS011;21083;50.898;4.902;2023-08-01T01:54:53;8.15;;;3.20;;
20653;SDS011;21083;50.898;4.902;2023-08-01T01:57:21;8.88;;;3.60;;
20653;SDS011;21083;50.898;4.902;2023-08-01T01:59:48;13.23;;;3.83;;
20653;SDS011;21083;50.898;4.902;2023-08-01T02:02:15;13.13;;;3.65;;
20653;SDS011;21083;50.898;4.902;2023-08-01T02:04:42;14.10;;;3.33;;
20653;SDS011;21083;50.898;4.902;2023-08-01T02:07:09;9.20;;;3.50;;
20653;SDS011;21083;50.898;4.902;2023-08-01T02:09:36;7.53;;;3.40;;
20653;SDS011;21083;50.898;4.902;2023-08-01T02:12:03;12.10;;;3.67;;
20653;SDS011;21083;50.898;4.902;2023-08-01T02:14:32;13.05;;;3.47;;
20653;SDS011;21083;50.898;4.902;2023-08-01T02:16:59;12.45;;;3.80;;
20653;SDS011;21083;50.898;4.902;2023-08-01T02:19:26;11.85;;;3.97;;
20653;SDS011;21083;50.898;4.902;2023-08-01T02:21:53;12.38;;;3.75;;
20653;SDS011;21083;50.898;4.902;2023-08-01T02:24:20;12.05;;;4.03;;
20653;SDS011;21083;50.898;4.902;2023-08-01T02:26:47;12.75;;;3.88;;
20653;SDS011;21083;50.898;4.902;2023-08-01T02:29:15;13.23;;;4.22;;
20653;SDS011;21083;50.898;4.902;2023-08-01T02:31:44;15.38;;;4.30;;
20653;SDS011;21083;50.898;4.902;2023-08-01T02:34:10;12.82;;;4.40;;
20653;SDS011;21083;50.898;4.902;2023-08-01T02:36:37;12.43;;;4.15;;
20653;SDS011;21083;50.898;4.902;2023-08-01T02:39:05;11.60;;;4.03;;
20653;SDS011;21083;50.898;4.902;2023-08-01T02:41:32;13.57;;;4.55;;
20653;SDS011;21083;50.898;4.902;2023-08-01T02:43:59;13.65;;;4.05;;
20653;SDS011;21083;50.898;4.902;2023-08-01T02:46:26;15.13;;;4.15;;
20653;SDS011;21083;50.898;4.902;2023-08-01T02:48:56;11.98;;;4.20;;
20653;SDS011;21083;50.898;4.902;2023-08-01T02:51:23;11.52;;;3.42;;
20653;SDS011;21083;50.898;4.902;2023-08-01T02:53:50;14.98;;;4.15;;
20653;SDS011;21083;50.898;4.902;2023-08-01T02:56:17;11.68;;;3.90;;
20653;SDS011;21083;50.898;4.902;2023-08-01T02:58:44;10.30;;;3.78;;
20653;SDS011;21083;50.898;4.902;2023-08-01T03:01:11;11.98;;;4.18;;
20653;SDS011;21083;50.898;4.902;2023-08-01T03:03:38;13.65;;;3.63;;
20653;SDS011;21083;50.898;4.902;2023-08-01T03:06:08;10.05;;;3.45;;
20653;SDS011;21083;50.898;4.902;2023-08-01T03:08:35;15.88;;;4.18;;
20653;SDS011;21083;50.898;4.902;2023-08-01T03:11:02;9.57;;;3.50;;
20653;SDS011;21083;50.898;4.902;2023-08-01T03:13:29;12.30;;;4.13;;
20653;SDS011;21083;50.898;4.902;2023-08-01T03:15:56;12.82;;;4.60;;
20653;SDS011;21083;50.898;4.902;2023-08-01T03:18:23;11.70;;;4.53;;
20653;SDS011;21083;50.898;4.902;2023-08-01T03:20:49;15.05;;;4.47;;
20653;SDS011;21083;50.898;4.902;2023-08-01T03:23:18;11.63;;;4.28;;
20653;SDS011;21083;50.898;4.902;2023-08-01T03:25:45;14.73;;;4.88;;
20653;SDS011;21083;50.898;4.902;2023-08-01T03:28:12;13.77;;;4.57;;
20653;SDS011;21083;50.898;4.902;2023-08-01T03:30:40;15.30;;;5.40;;
20653;SDS011;21083;50.898;4.902;2023-08-01T03:33:07;18.65;;;5.15;;
20653;SDS011;21083;50.898;4.902;2023-08-01T03:35:34;18.55;;;5.30;;
20653;SDS011;21083;50.898;4.902;2023-08-01T03:38:01;12.77;;;5.13;;
20653;SDS011;21083;50.898;4.902;2023-08-01T03:40:29;15.73;;;4.57;;
20653;SDS011;21083;50.898;4.902;2023-08-01T03:42:56;14.18;;;4.97;;
20653;SDS011;21083;50.898;4.902;2023-08-01T03:45:23;19.38;;;4.93;;
20653;SDS011;21083;50.898;4.902;2023-08-01T03:47:50;15.77;;;5.40;;
20653;SDS011;21083;50.898;4.902;2023-08-01T03:50:17;15.63;;;5.07;;
20653;SDS011;21083;50.898;4.902;2023-08-01T03:52:45;20.13;;;5.65;;
20653;SDS011;21083;50.898;4.902;2023-08-01T03:55:12;14.05;;;5.15;;
20653;SDS011;21083;50.898;4.902;2023-08-01T03:57:40;14.73;;;5.50;;
20653;SDS011;21083;50.898;4.902;2023-08-01T04:00:08;14.38;;;5.30;;
20653;SDS011;21083;50.898;4.902;2023-08-01T04:02:38;15.63;;;5.18;;
20653;SDS011;21083;50.898;4.902;2023-08-01T04:05:06;15.20;;;4.93;;
20653;SDS011;21083;50.898;4.902;2023-08-01T04:07:34;12.77;;;5.22;;
20653;SDS011;21083;50.898;4.902;2023-08-01T04:10:01;14.20;;;5.72;;
20653;SDS011;21083;50.898;4.902;2023-08-01T04:12:28;15.38;;;4.97;;
20653;SDS011;21083;50.898;4.902;2023-08-01T04:14:57;18.75;;;5.30;;
20653;SDS011;21083;50.898;4.902;2023-08-01T04:17:24;16.38;;;5.07;;
20653;SDS011;21083;50.898;4.902;2023-08-01T04:19:51;16.80;;;6.15;;
20653;SDS011;21083;50.898;4.902;2023-08-01T04:22:18;15.70;;;5.20;;
20653;SDS011;21083;50.898;4.902;2023-08-01T04:24:45;18.85;;;6.57;;
20653;SDS011;21083;50.898;4.902;2023-08-01T04:27:12;15.13;;;5.72;;
20653;SDS011;21083;50.898;4.902;2023-08-01T04:29:38;22.85;;;6.68;;
20653;SDS011;21083;50.898;4.902;2023-08-01T04:32:07;14.85;;;5.15;;
20653;SDS011;21083;50.898;4.902;2023-08-01T04:34:36;18.45;;;6.07;;
20653;SDS011;21083;50.898;4.902;2023-08-01T04:37:03;18.05;;;5.95;;
20653;SDS011;21083;50.898;4.902;2023-08-01T04:39:30;20.63;;;6.20;;
20653;SDS011;21083;50.898;4.902;2023-08-01T04:41:57;18.40;;;6.25;;
20653;SDS011;21083;50.898;4.902;2023-08-01T04:44:24;13.40;;;5.43;;
20653;SDS011;21083;50.898;4.902;2023-08-01T04:46:51;16.83;;;5.78;;
20653;SDS011;21083;50.898;4.902;2023-08-01T04:49:19;14.35;;;5.80;;
20653;SDS011;21083;50.898;4.902;2023-08-01T04:51:48;19.25;;;6.10;;
20653;SDS011;21083;50.898;4.902;2023-08-01T04:54:16;16.10;;;5.85;;
20653;SDS011;21083;50.898;4.902;2023-08-01T04:56:43;17.88;;;5.97;;
20653;SDS011;21083;50.898;4.902;2023-08-01T04:59:10;20.90;;;5.97;;
20653;SDS011;21083;50.898;4.902;2023-08-01T05:01:37;22.45;;;6.07;;
20653;SDS011;21083;50.898;4.902;2023-08-01T05:04:04;21.48;;;6.60;;
20653;SDS011;21083;50.898;4.902;2023-08-01T05:06:32;18.90;;;6.68;;
20653;SDS011;21083;50.898;4.902;2023-08-01T05:08:59;22.45;;;6.65;;
20653;SDS011;21083;50.898;4.902;2023-08-01T05:11:27;18.60;;;6.22;;
20653;SDS011;21083;50.898;4.902;2023-08-01T05:13:54;16.30;;;6.30;;
20653;SDS011;21083;50.898;4.902;2023-08-01T05:16:21;16.05;;;6.57;;
20653;SDS011;21083;50.898;4.902;2023-08-01T05:18:47;16.60;;;5.72;;
20653;SDS011;21083;50.898;4.902;2023-08-01T05:21:14;22.48;;;7.15;;
20653;SDS011;21083;50.898;4.902;2023-08-01T05:23:43;20.20;;;6.82;;
20653;SDS011;21083;50.898;4.902;2023-08-01T05:26:10;15.38;;;6.30;;
20653;SDS011;21083;50.898;4.902;2023-08-01T05:28:37;27.02;;;7.45;;
20653;SDS011;21083;50.898;4.902;2023-08-01T05:31:04;19.88;;;7.22;;
20653;SDS011;21083;50.898;4.902;2023-08-01T05:33:31;17.23;;;6.93;;
20653;SDS011;21083;50.898;4.902;2023-08-01T05:35:58;22.80;;;7.10;;
20653;SDS011;21083;50.898;4.902;2023-08-01T05:38:25;18.33;;;6.65;;
20653;SDS011;21083;50.898;4.902;2023-08-01T05:40:53;21.33;;;6.30;;
20653;SDS011;21083;50.898;4.902;2023-08-01T05:43:20;24.02;;;7.05;;
20653;SDS011;21083;50.898;4.902;2023-08-01T05:45:47;20.33;;;7.20;;
20653;SDS011;21083;50.898;4.902;2023-08-01T05:48:14;18.35;;;7.18;;
20653;SDS011;21083;50.898;4.902;2023-08-01T05:50:41;18.77;;;6.88;;
20653;SDS011;21083;50.898;4.902;2023-08-01T05:53:08;18.88;;;7.25;;
20653;SDS011;21083;50.898;4.902;2023-08-01T05:55:35;17.77;;;6.35;;
20653;SDS011;21083;50.898;4.902;2023-08-01T05:58:03;19.63;;;7.57;;
20653;SDS011;21083;50.898;4.902;2023-08-01T06:00:30;18.17;;;7.20;;
20653;SDS011;21083;50.898;4.902;2023-08-01T06:02:58;23.33;;;7.25;;
20653;SDS011;21083;50.898;4.902;2023-08-01T06:05:25;14.02;;;5.93;;
20653;SDS011;21083;50.898;4.902;2023-08-01T06:07:52;19.50;;;6.72;;
20653;SDS011;21083;50.898;4.902;2023-08-01T06:10:19;19.73;;;7.20;;
20653;SDS011;21083;50.898;4.902;2023-08-01T06:12:46;17.33;;;6.47;;
20653;SDS011;21083;50.898;4.902;2023-08-01T06:15:15;18.40;;;6.45;;
20653;SDS011;21083;50.898;4.902;2023-08-01T06:17:42;18.85;;;6.22;;
20653;SDS011;21083;50.898;4.902;2023-08-01T06:20:09;19.27;;;6.15;;
20653;SDS011;21083;50.898;4.902;2023-08-01T06:22:37;19.92;;;6.43;;
20653;SDS011;21083;50.898;4.902;2023-08-01T06:25:05;20.30;;;6.38;;
20653;SDS011;21083;50.898;4.902;2023-08-01T06:27:32;16.40;;;6.40;;
20653;SDS011;21083;50.898;4.902;2023-08-01T06:29:59;19.83;;;6.75;;
20653;SDS011;21083;50.898;4.902;2023-08-01T06:32:28;16.65;;;6.50;;
20653;SDS011;21083;50.898;4.902;2023-08-01T06:34:55;20.17;;;7.00;;
20653;SDS011;21083;50.898;4.902;2023-08-01T06:37:22;21.65;;;6.78;;
20653;SDS011;21083;50.898;4.902;2023-08-01T06:39:49;22.33;;;7.03;;
20653;SDS011;21083;50.898;4.902;2023-08-01T06:42:16;17.73;;;7.03;;
20653;SDS011;21083;50.898;4.902;2023-08-01T06:44:43;23.10;;;7.47;;
20653;SDS011;21083;50.898;4.902;2023-08-01T06:47:11;17.25;;;6.88;;
20653;SDS011;21083;50.898;4.902;2023-08-01T06:49:40;23.48;;;7.93;;
20653;SDS011;21083;50.898;4.902;2023-08-01T06:52:07;18.95;;;7.13;;
20653;SDS011;21083;50.898;4.902;2023-08-01T06:54:34;16.65;;;6.72;;
20653;SDS011;21083;50.898;4.902;2023-08-01T06:57:01;17.25;;;6.10;;
20653;SDS011;21083;50.898;4.902;2023-08-01T06:59:28;15.18;;;6.47;;
20653;SDS011;21083;50.898;4.902;2023-08-01T07:01:55;15.30;;;5.80;;
20653;SDS011;21083;50.898;4.902;2023-08-01T07:04:22;18.92;;;6.25;;
20653;SDS011;21083;50.898;4.902;2023-08-01T07:06:51;19.63;;;6.50;;
20653;SDS011;21083;50.898;4.902;2023-08-01T07:09:18;18.33;;;6.32;;
20653;SDS011;21083;50.898;4.902;2023-08-01T07:11:45;18.75;;;6.78;;
20653;SDS011;21083;50.898;4.902;2023-08-01T07:14:12;16.85;;;6.80;;
20653;SDS011;21083;50.898;4.902;2023-08-01T07:16:39;23.50;;;6.05;;
20653;SDS011;21083;50.898;4.902;2023-08-01T07:19:06;17.13;;;5.78;;
20653;SDS011;21083;50.898;4.902;2023-08-01T07:21:33;20.42;;;6.43;;
20653;SDS011;21083;50.898;4.902;2023-08-01T07:24:01;20.88;;;6.07;;
20653;SDS011;21083;50.898;4.902;2023-08-01T07:26:29;17.02;;;5.97;;
20653;SDS011;21083;50.898;4.902;2023-08-01T07:28:56;15.55;;;6.10;;
20653;SDS011;21083;50.898;4.902;2023-08-01T07:31:23;16.33;;;5.78;;
20653;SDS011;21083;50.898;4.902;2023-08-01T07:33:50;17.15;;;6.30;;
20653;SDS011;21083;50.898;4.902;2023-08-01T07:36:17;21.83;;;6.95;;
20653;SDS011;21083;50.898;4.902;2023-08-01T07:38:44;20.67;;;7.15;;
20653;SDS011;21083;50.898;4.902;2023-08-01T07:41:12;17.38;;;6.38;;
20653;SDS011;21083;50.898;4.902;2023-08-01T07:43:39;16.77;;;6.25;;
20653;SDS011;21083;50.898;4.902;2023-08-01T07:46:06;14.40;;;6.10;;
20653;SDS011;21083;50.898;4.902;2023-08-01T07:48:33;13.82;;;5.68;;
20653;SDS011;21083;50.898;4.902;2023-08-01T07:51:01;14.93;;;5.50;;
20653;SDS011;21083;50.898;4.902;2023-08-01T07:53:28;20.73;;;6.05;;
20653;SDS011;21083;50.898;4.902;2023-08-01T07:55:55;14.25;;;5.32;;
20653;SDS011;21083;50.898;4.902;2023-08-01T07:58:24;13.82;;;5.40;;
20653;SDS011;21083;50.898;4.902;2023-08-01T08:00:51;13.38;;;4.55;;
20653;SDS011;21083;50.898;4.902;2023-08-01T08:03:18;16.58;;;5.53;;
20653;SDS011;21083;50.898;4.902;2023-08-01T08:05:47;16.25;;;4.65;;
20653;SDS011;21083;50.898;4.902;2023-08-01T08:08:14;16.30;;;4.70;;
20653;SDS011;21083;50.898;4.902;2023-08-01T08:10:41;16.38;;;5.38;;
20653;SDS011;21083;50.898;4.902;2023-08-01T08:13:08;14.73;;;4.55;;
20653;SDS011;21083;50.898;4.902;2023-08-01T08:15:36;14.75;;;3.95;;
20653;SDS011;21083;50.898;4.902;2023-08-01T08:18:03;17.95;;;4.20;;
20653;SDS011;21083;50.898;4.902;2023-08-01T08:20:31;17.17;;;4.78;;
20653;SDS011;21083;50.898;4.902;2023-08-01T08:22:58;16.58;;;5.68;;
20653;SDS011;21083;50.898;4.902;2023-08-01T08:25:25;14.45;;;4.53;;
20653;SDS011;21083;50.898;4.902;2023-08-01T08:27:52;15.55;;;4.35;;
20653;SDS011;21083;50.898;4.902;2023-08-01T08:30:19;20.08;;;4.97;;
20653;SDS011;21083;50.898;4.902;2023-08-01T08:32:47;13.20;;;4.28;;
20653;SDS011;21083;50.898;4.902;2023-08-01T08:35:14;14.20;;;4.85;;
20653;SDS011;21083;50.898;4.902;2023-08-01T08:37:42;16.63;;;4.55;;
20653;SDS011;21083;50.898;4.902;2023-08-01T08:40:09;11.43;;;4.47;;
20653;SDS011;21083;50.898;4.902;2023-08-01T08:42:38;14.15;;;5.35;;
20653;SDS011;21083;50.898;4.902;2023-08-01T08:45:06;13.93;;;4.78;;
20653;SDS011;21083;50.898;4.902;2023-08-01T08:47:35;15.95;;;6.18;;
20653;SDS011;21083;50.898;4.902;2023-08-01T08:50:06;20.20;;;5.82;;
20653;SDS011;21083;50.898;4.902;2023-08-01T08:52:34;14.85;;;6.13;;
20653;SDS011;21083;50.898;4.902;2023-08-01T08:55:01;18.90;;;5.30;;
20653;SDS011;21083;50.898;4.902;2023-08-01T08:57:28;15.57;;;4.97;;
20653;SDS011;21083;50.898;4.902;2023-08-01T08:59:57;14.13;;;4.63;;
20653;SDS011;21083;50.898;4.902;2023-08-01T09:02:26;16.73;;;4.68;;
20653;SDS011;21083;50.898;4.902;2023-08-01T09:04:53;15.65;;;3.55;;
20653;SDS011;21083;50.898;4.902;2023-08-01T09:07:23;20.13;;;5.20;;
20653;SDS011;21083;50.898;4.902;2023-08-01T09:09:53;12.40;;;3.50;;
20653;SDS011;21083;50.898;4.902;2023-08-01T09:12:20;16.80;;;3.50;;
20653;SDS011;21083;50.898;4.902;2023-08-01T09:14:48;15.38;;;3.10;;
20653;SDS011;21083;50.898;4.902;2023-08-01T09:17:17;9.50;;;2.95;;
20653;SDS011;21083;50.898;4.902;2023-08-01T09:19:44;11.65;;;3.28;;
20653;SDS011;21083;50.898;4.902;2023-08-01T09:22:11;11.68;;;3.33;;
20653;SDS011;21083;50.898;4.902;2023-08-01T09:24:49;12.30;;;3.03;;
20653;SDS011;21083;50.898;4.902;2023-08-01T09:27:17;12.73;;;3.72;;
20653;SDS011;21083;50.898;4.902;2023-08-01T09:30:04;11.57;;;3.30;;
20653;SDS011;21083;50.898;4.902;2023-08-01T09:32:50;10.23;;;3.15;;
20653;SDS011;21083;50.898;4.902;2023-08-01T09:35:18;15.30;;;3.10;;
20653;SDS011;21083;50.898;4.902;2023-08-01T09:37:45;16.92;;;3.38;;
20653;SDS011;21083;50.898;4.902;2023-08-01T09:40:13;10.95;;;2.63;;
20653;SDS011;21083;50.898;4.902;2023-08-01T09:42:41;11.82;;;3.00;;
20653;SDS011;21083;50.898;4.902;2023-08-01T09:45:12;12.65;;;2.72;;
20653;SDS011;21083;50.898;4.902;2023-08-01T09:47:40;13.85;;;2.80;;
20653;SDS011;21083;50.898;4.902;2023-08-01T09:50:08;7.53;;;2.10;;
20653;SDS011;21083;50.898;4.902;2023-08-01T09:52:38;12.35;;;2.38;;
20653;SDS011;21083;50.898;4.902;2023-08-01T09:55:05;12.52;;;2.83;;
20653;SDS011;21083;50.898;4.902;2023-08-01T09:57:34;8.57;;;2.45;;
20653;SDS011;21083;50.898;4.902;2023-08-01T10:00:07;10.88;;;2.47;;
20653;SDS011;21083;50.898;4.902;2023-08-01T10:02:35;12.63;;;2.58;;
20653;SDS011;21083;50.898;4.902;2023-08-01T10:05:04;10.77;;;2.50;;
20653;SDS011;21083;50.898;4.902;2023-08-01T10:07:33;6.57;;;2.40;;
20653;SDS011;21083;50.898;4.902;2023-08-01T10:10:02;10.27;;;2.60;;
20653;SDS011;21083;50.898;4.902;2023-08-01T10:12:30;11.18;;;2.80;;
20653;SDS011;21083;50.898;4.902;2023-08-01T10:14:59;13.43;;;3.10;;
20653;SDS011;21083;50.898;4.902;2023-08-01T10:17:29;10.73;;;2.80;;
20653;SDS011;21083;50.898;4.902;2023-08-01T10:19:57;13.13;;;2.40;;
20653;SDS011;21083;50.898;4.902;2023-08-01T10:22:25;12.57;;;3.17;;
20653;SDS011;21083;50.898;4.902;2023-08-01T10:24:53;9.40;;;2.60;;
20653;SDS011;21083;50.898;4.902;2023-08-01T10:27:21;9.77;;;2.63;;
20653;SDS011;21083;50.898;4.902;2023-08-01T10:29:57;9.70;;;3.50;;
20653;SDS011;21083;50.898;4.902;2023-08-01T10:32:31;9.10;;;2.65;;
20653;SDS011;21083;50.898;4.902;2023-08-01T10:34:58;8.63;;;2.88;;
20653;SDS011;21083;50.898;4.902;2023-08-01T10:37:25;11.68;;;3.10;;
20653;SDS011;21083;50.898;4.902;2023-08-01T10:39:56;8.00;;;2.40;;
20653;SDS011;21083;50.898;4.902;2023-08-01T10:42:24;11.85;;;3.40;;
20653;SDS011;21083;50.898;4.902;2023-08-01T10:44:52;10.10;;;2.80;;
20653;SDS011;21083;50.898;4.902;2023-08-01T10:47:26;9.13;;;3.05;;
20653;SDS011;21083;50.898;4.902;2023-08-01T10:49:53;9.23;;;3.00;;
20653;SDS011;21083;50.898;4.902;2023-08-01T10:52:21;12.02;;;2.90;;
20653;SDS011;21083;50.898;4.902;2023-08-01T10:54:56;10.00;;;2.67;;
20653;SDS011;21083;50.898;4.902;2023-08-01T10:57:26;8.88;;;2.67;;
20653;SDS011;21083;50.898;4.902;2023-08-01T10:59:54;10.25;;;3.03;;
20653;SDS011;21083;50.898;4.902;2023-08-01T11:02:22;9.50;;;2.70;;
20653;SDS011;21083;50.898;4.902;2023-08-01T11:04:58;11.32;;;3.13;;
20653;SDS011;21083;50.898;4.902;2023-08-01T11:07:26;9.32;;;2.72;;
20653;SDS011;21083;50.898;4.902;2023-08-01T11:10:06;10.45;;;3.13;;
20653;SDS011;21083;50.898;4.902;2023-08-01T11:12:35;7.47;;;2.53;;
20653;SDS011;21083;50.898;4.902;2023-08-01T11:15:03;7.75;;;2.22;;
20653;SDS011;21083;50.898;4.902;2023-08-01T11:17:33;8.85;;;2.55;;
20653;SDS011;21083;50.898;4.902;2023-08-01T11:20:04;9.27;;;3.00;;
20653;SDS011;21083;50.898;4.902;2023-08-01T11:22:32;10.82;;;3.08;;
20653;SDS011;21083;50.898;4.902;2023-08-01T11:24:59;6.80;;;2.65;;
20653;SDS011;21083;50.898;4.902;2023-08-01T11:27:26;9.52;;;2.75;;
20653;SDS011;21083;50.898;4.902;2023-08-01T11:29:54;9.77;;;2.83;;
20653;SDS011;21083;50.898;4.902;2023-08-01T11:32:21;12.88;;;2.17;;
20653;SDS011;21083;50.898;4.902;2023-08-01T11:34:58;7.60;;;2.05;;
20653;SDS011;21083;50.898;4.902;2023-08-01T11:37:27;7.68;;;1.80;;
20653;SDS011;21083;50.898;4.902;2023-08-01T11:39:54;7.57;;;1.85;;
20653;SDS011;21083;50.898;4.902;2023-08-01T11:42:23;8.23;;;2.38;;
20653;SDS011;21083;50.898;4.902;2023-08-01T11:44:50;7.10;;;1.80;;
20653;SDS011;21083;50.898;4.902;2023-08-01T11:47:17;7.82;;;2.30;;
20653;SDS011;21083;50.898;4.902;2023-08-01T11:49:45;10.35;;;1.70;;
20653;SDS011;21083;50.898;4.902;2023-08-01T11:52:23;18.83;;;2.97;;
20653;SDS011;21083;50.898;4.902;2023-08-01T11:54:52;7.63;;;1.60;;
20653;SDS011;21083;50.898;4.902;2023-08-01T11:57:19;7.75;;;1.75;;
20653;SDS011;21083;50.898;4.902;2023-08-01T11:59:47;11.73;;;1.90;;
20653;SDS011;21083;50.898;4.902;2023-08-01T12:02:21;8.45;;;2.25;;
20653;SDS011;21083;50.898;4.902;2023-08-01T12:04:49;7.38;;;2.00;;
20653;SDS011;21083;50.898;4.902;2023-08-01T12:07:17;7.72;;;2.10;;
20653;SDS011;21083;50.898;4.902;2023-08-01T12:09:44;8.98;;;2.05;;
20653;SDS011;21083;50.898;4.902;2023-08-01T12:12:22;7.18;;;2.22;;
20653;SDS011;21083;50.898;4.902;2023-08-01T12:14:49;14.20;;;2.40;;
20653;SDS011;21083;50.898;4.902;2023-08-01T12:17:18;9.40;;;2.17;;
20653;SDS011;21083;50.898;4.902;2023-08-01T12:19:45;10.35;;;1.90;;
20653;SDS011;21083;50.898;4.902;2023-08-01T12:22:12;10.30;;;2.38;;
20653;SDS011;21083;50.898;4.902;2023-08-01T12:24:39;7.72;;;1.92;;
20653;SDS011;21083;50.898;4.902;2023-08-01T12:27:08;6.82;;;1.65;;
20653;SDS011;21083;50.898;4.902;2023-08-01T12:29:35;8.90;;;2.42;;
20653;SDS011;21083;50.898;4.902;2023-08-01T12:32:03;8.60;;;2.38;;
20653;SDS011;21083;50.898;4.902;2023-08-01T12:34:31;10.52;;;2.45;;
20653;SDS011;21083;50.898;4.902;2023-08-01T12:36:58;9.27;;;2.20;;
20653;SDS011;21083;50.898;4.902;2023-08-01T12:39:25;10.48;;;2.38;;
20653;SDS011;21083;50.898;4.902;2023-08-01T12:41:52;11.75;;;2.83;;
20653;SDS011;21083;50.898;4.902;2023-08-01T12:44:22;10.32;;;2.33;;
20653;SDS011;21083;50.898;4.902;2023-08-01T12:46:49;16.20;;;2.58;;
20653;SDS011;21083;50.898;4.902;2023-08-01T12:49:17;7.03;;;1.65;;
20653;SDS011;21083;50.898;4.902;2023-08-01T12:51:44;10.00;;;2.35;;
20653;SDS011;21083;50.898;4.902;2023-08-01T12:54:11;7.68;;;1.77;;
20653;SDS011;21083;50.898;4.902;2023-08-01T12:56:38;7.70;;;1.80;;
20653;SDS011;21083;50.898;4.902;2023-08-01T12:59:05;9.07;;;2.25;;
20653;SDS011;21083;50.898;4.902;2023-08-01T13:01:33;11.63;;;2.20;;
20653;SDS011;21083;50.898;4.902;2023-08-01T13:04:00;7.80;;;1.95;;
20653;SDS011;21083;50.898;4.902;2023-08-01T13:06:27;6.63;;;1.60;;
20653;SDS011;21083;50.898;4.902;2023-08-01T13:08:55;9.40;;;1.50;;
20653;SDS011;21083;50.898;4.902;2023-08-01T13:11:21;8.10;;;2.05;;
20653;SDS011;21083;50.898;4.902;2023-08-01T13:13:48;8.80;;;1.80;;
20653;SDS011;21083;50.898;4.902;2023-08-01T13:16:15;11.15;;;2.33;;
20653;SDS011;21083;50.898;4.902;2023-08-01T13:18:44;7.05;;;1.48;;
20653;SDS011;21083;50.898;4.902;2023-08-01T13:21:13;4.22;;;1.20;;
20653;SDS011;21083;50.898;4.902;2023-08-01T13:23:40;5.07;;;1.50;;
20653;SDS011;21083;50.898;4.902;2023-08-01T13:26:07;7.65;;;1.98;;
20653;SDS011;21083;50.898;4.902;2023-08-01T13:28:34;10.73;;;1.60;;
20653;SDS011;21083;50.898;4.902;2023-08-01T13:31:01;9.68;;;1.50;;
20653;SDS011;21083;50.898;4.902;2023-08-01T13:33:28;8.55;;;1.40;;
20653;SDS011;21083;50.898;4.902;2023-08-01T13:35:56;8.25;;;1.48;;
20653;SDS011;21083;50.898;4.902;2023-08-01T13:38:24;7.63;;;2.00;;
20653;SDS011;21083;50.898;4.902;2023-08-01T13:40:51;8.35;;;1.52;;
20653;SDS011;21083;50.898;4.902;2023-08-01T13:43:18;3.78;;;1.00;;
20653;SDS011;21083;50.898;4.902;2023-08-01T13:45:45;5.93;;;0.93;;
20653;SDS011;21083;50.898;4.902;2023-08-01T13:48:12;10.32;;;1.60;;
20653;SDS011;21083;50.898;4.902;2023-08-01T13:50:39;9.23;;;1.38;;
20653;SDS011;21083;50.898;4.902;2023-08-01T13:53:08;9.02;;;1.83;;
20653;SDS011;21083;50.898;4.902;2023-08-01T13:55:39;5.22;;;1.50;;
20653;SDS011;21083;50.898;4.902;2023-08-01T13:58:06;6.22;;;1.38;;
20653;SDS011;21083;50.898;4.902;2023-08-01T14:00:33;9.85;;;1.90;;
20653;SDS011;21083;50.898;4.902;2023-08-01T14:03:03;8.23;;;1.75;;
20653;SDS011;21083;50.898;4.902;2023-08-01T14:05:30;6.13;;;1.30;;
20653;SDS011;21083;50.898;4.902;2023-08-01T14:07:57;6.25;;;1.63;;
20653;SDS011;21083;50.898;4.902;2023-08-01T14:10:27;6.95;;;1.77;;
20653;SDS011;21083;50.898;4.902;2023-08-01T14:12:54;11.85;;;1.73;;
20653;SDS011;21083;50.898;4.902;2023-08-01T14:15:21;8.48;;;1.73;;
20653;SDS011;21083;50.898;4.902;2023-08-01T14:17:51;11.60;;;2.40;;
20653;SDS011;21083;50.898;4.902;2023-08-01T14:20:18;10.18;;;2.03;;
20653;SDS011;21083;50.898;4.902;2023-08-01T14:22:45;7.28;;;1.40;;
20653;SDS011;21083;50.898;4.902;2023-08-01T14:25:12;9.98;;;1.92;;
20653;SDS011;21083;50.898;4.902;2023-08-01T14:27:41;9.95;;;1.50;;
20653;SDS011;21083;50.898;4.902;2023-08-01T14:30:08;7.63;;;2.00;;
20653;SDS011;21083;50.898;4.902;2023-08-01T14:32:36;9.80;;;1.88;;
20653;SDS011;21083;50.898;4.902;2023-08-01T14:35:04;8.55;;;1.60;;
20653;SDS011;21083;50.898;4.902;2023-08-01T14:37:32;7.80;;;2.13;;
20653;SDS011;21083;50.898;4.902;2023-08-01T14:39:59;8.63;;;1.55;;
20653;SDS011;21083;50.898;4.902;2023-08-01T14:42:26;10.02;;;1.83;;
20653;SDS011;21083;50.898;4.902;2023-08-01T14:44:54;10.25;;;1.90;;